Sable Island, Nova Scotia

8:30 PM ADT on July 22, 2017 (GMT -0300)
Sable Island | | Change Station

Elev 13 ft 43.93 °N, 60.02 °W | Updated 30 minutes ago

Clear
Clear
63 °F
Feels Like 63 °F
N
8
Wind Variable Wind from WSW

Today
High -- | Low -- °F
--% Chance of Precip.
Yesterday
High -- | Low -- °F
Precip. -- in
Pressure 29.74 in
Visibility 5.0 miles
Clouds Clear
Dew Point 59 °F
Humidity 88%
Rainfall 0.00 in
Snow Depth Not available.
5:38 AM 8:34 PM
Waning Crescent, 0% visible
METAR CWSA 222300Z AUTO 25007KT 5SM BR CLR 17/15 A2973 RMK TS/LTNG TEMPO UNAVBL SLP070 DENSITY ALT 400FT
Pressure 29.74 in
Visibility 5.0 miles
Clouds Clear
Dew Point 59 °F
Humidity 88%
Rainfall 0.00 in
Snow Depth Not available.
5:38 AM 8:34 PM
Waning Crescent, 0% visible
METAR CWSA 222300Z AUTO 25007KT 5SM BR CLR 17/15 A2973 RMK TS/LTNG TEMPO UNAVBL SLP070 DENSITY ALT 400FT

Get Severe Weather Alerts

Thanks for signing up!

Be on the lookout for a verification email in your inbox.

You'll start receiving the daily forecast at 6 AM.

×

10-Day Weather Forecast

Almanac

Astronomy

Jul. 22, 2017 Rise Set
Actual Time
Civil Twilight
Nautical Twilight
Astronomical Twilight
Moon
Length of Visible Light
Length of Day
Tomorrow will be .
, % of the Moon is Illuminated

Today's Extremes

Country Highs Country Lows

Community

WunderPhotos

Category 6

Welcome to Category 6. This is the collective home for Weather Underground's featured writeups by Dr. Jeff Masters (right), Bob Henson (left), Chris Burt, and other regular contributors.

Nearby

Air Quality

  Air Quality AQ Index Pollutant
Not available.

Snow Depth

Station Depth Elevation

Earthquake Activity

City Distance Mag. Time & Date
Minimum magnitude displayed is 2.5.

Coastal Water Temperatures

Place Temperature

Stations

Nearby Weather Stations

Station Location Temp. Windchill Dew Point Humidity Wind Precip. Elev Updated Type
                   

Watches & Warnings

There are currently no watches in effect.